createdAt,value
2017-04-04T00:00:31.806Z,5.64
2017-04-04T00:01:12.390Z,5.65
2017-04-04T00:01:53.023Z,5.62
2017-04-04T00:02:33.677Z,5.65
2017-04-04T00:03:14.333Z,5.59
2017-04-04T00:03:54.980Z,5.56
2017-04-04T00:04:36.666Z,5.5
2017-04-04T00:05:17.324Z,5.57
2017-04-04T00:05:57.967Z,5.48
2017-04-04T00:06:38.639Z,5.5
2017-04-04T00:07:19.284Z,5.62
2017-04-04T00:07:59.913Z,5.48
2017-04-04T00:08:40.608Z,5.47
2017-04-04T00:09:21.240Z,5.53
2017-04-04T00:10:01.883Z,5.59
2017-04-04T00:10:42.521Z,5.5
2017-04-04T00:11:23.064Z,5.51
2017-04-04T00:12:03.743Z,5.5
2017-04-04T00:12:44.370Z,5.56
2017-04-04T00:13:24.947Z,5.5
2017-04-04T00:14:05.591Z,5.5
2017-04-04T00:14:46.228Z,5.5
2017-04-04T00:15:26.800Z,5.44
2017-04-04T00:16:07.465Z,5.47
2017-04-04T00:16:48.106Z,5.51
2017-04-04T00:17:29.446Z,5.5
2017-04-04T00:18:10.130Z,5.44
2017-04-04T00:18:50.771Z,5.41
2017-04-04T00:19:32.369Z,5.36
2017-04-04T00:20:13.002Z,5.46
2017-04-04T00:20:53.666Z,5.38
2017-04-04T00:21:34.334Z,5.43
2017-04-04T00:22:14.972Z,5.33
2017-04-04T00:22:55.652Z,5.39
2017-04-04T00:23:36.281Z,5.35
2017-04-04T00:24:16.964Z,5.36
2017-04-04T00:24:57.590Z,5.35
2017-04-04T00:25:38.231Z,5.33
2017-04-04T00:26:18.897Z,5.35
2017-04-04T00:26:59.546Z,5.32
2017-04-04T00:27:41.213Z,5.25
2017-04-04T00:28:21.880Z,5.3
2017-04-04T00:29:02.527Z,5.23
2017-04-04T00:29:43.194Z,5.29
2017-04-04T00:30:23.851Z,5.23
2017-04-04T00:31:04.492Z,5.26
2017-04-04T00:31:45.122Z,5.26
2017-04-04T00:32:25.794Z,5.21
2017-04-04T00:33:07.496Z,5.21
2017-04-04T00:33:48.120Z,5.26
2017-04-04T00:34:29.799Z,5.17
2017-04-04T00:35:10.460Z,5.23
2017-04-04T00:35:51.106Z,5.23
2017-04-04T00:36:31.787Z,5.23
2017-04-04T00:37:12.463Z,5.18
2017-04-04T00:37:54.949Z,5.12
2017-04-04T00:38:35.546Z,5.14
2017-04-04T00:39:16.219Z,5.25
2017-04-04T00:39:56.874Z,5.15
2017-04-04T00:40:37.523Z,5.1
2017-04-04T00:41:18.174Z,5.15
2017-04-04T00:41:58.831Z,5.12
2017-04-04T00:42:39.509Z,5.15
2017-04-04T00:43:20.135Z,5.14
2017-04-04T00:44:00.837Z,5.11
2017-04-04T00:44:41.442Z,5.11
2017-04-04T00:45:22.087Z,5.11
2017-04-04T00:46:02.674Z,5.11
2017-04-04T00:46:43.353Z,5.12
2017-04-04T00:47:23.832Z,5.14
2017-04-04T00:48:04.547Z,5.07
2017-04-04T00:48:45.186Z,5.07
2017-04-04T00:49:25.785Z,5.04
2017-04-04T00:50:06.362Z,5.05
2017-04-04T00:50:47.002Z,5.05
2017-04-04T00:51:27.670Z,5.05
2017-04-04T00:52:08.294Z,5
2017-04-04T00:52:48.973Z,4.96
2017-04-04T00:53:29.628Z,5.04
2017-04-04T00:54:10.281Z,5.04
2017-04-04T00:54:50.918Z,5.05
2017-04-04T00:55:32.513Z,5.04
2017-04-04T00:56:13.161Z,5.08
2017-04-04T00:56:53.790Z,4.92
2017-04-04T00:57:34.537Z,5
2017-04-04T00:58:15.111Z,5
2017-04-04T00:58:55.767Z,4.96
2017-04-04T00:59:36.426Z,4.97
2017-04-04T01:00:17.064Z,4.96
2017-04-04T01:00:58.281Z,4.96
2017-04-04T01:01:38.872Z,4.97
2017-04-04T01:02:19.426Z,4.94
2017-04-04T01:03:00.104Z,4.99
2017-04-04T01:03:40.785Z,4.99
2017-04-04T01:04:21.377Z,4.89
2017-04-04T01:05:01.958Z,4.87
2017-04-04T01:05:42.589Z,4.9
2017-04-04T01:06:23.253Z,4.87
2017-04-04T01:07:03.905Z,4.8
2017-04-04T01:07:44.632Z,4.78
2017-04-04T01:08:25.204Z,4.82
2017-04-04T01:09:05.860Z,4.75
2017-04-04T01:09:46.517Z,4.84
2017-04-04T01:10:28.203Z,4.78
2017-04-04T01:11:08.885Z,4.86
2017-04-04T01:11:49.491Z,4.75
2017-04-04T01:12:30.145Z,4.75
2017-04-04T01:13:10.730Z,4.74
2017-04-04T01:13:51.395Z,4.78
2017-04-04T01:14:31.990Z,4.74
2017-04-04T01:15:12.606Z,4.7
2017-04-04T01:15:53.215Z,4.75
2017-04-04T01:16:33.879Z,4.74
2017-04-04T01:17:14.514Z,4.66
2017-04-04T01:17:55.176Z,4.67
2017-04-04T01:18:35.845Z,4.7
2017-04-04T01:19:16.477Z,4.71
2017-04-04T01:19:57.121Z,4.6
2017-04-04T01:20:37.803Z,4.63
2017-04-04T01:21:18.433Z,4.63
2017-04-04T01:21:59.175Z,4.63
2017-04-04T01:22:39.744Z,4.6
2017-04-04T01:23:21.172Z,4.62
2017-04-04T01:24:01.765Z,4.63
2017-04-04T01:24:42.415Z,4.66
2017-04-04T01:25:23.073Z,4.67
2017-04-04T01:26:03.757Z,4.62
2017-04-04T01:26:44.355Z,4.6
2017-04-04T01:27:24.925Z,4.6
2017-04-04T01:28:06.583Z,4.58
2017-04-04T01:28:47.260Z,4.62
2017-04-04T01:29:27.847Z,4.6
2017-04-04T01:30:08.450Z,4.62
2017-04-04T01:30:49.008Z,4.55
2017-04-04T01:31:29.664Z,4.55
2017-04-04T01:32:10.319Z,4.62
2017-04-04T01:32:50.971Z,4.6
2017-04-04T01:33:31.631Z,4.6
2017-04-04T01:34:12.324Z,4.6
2017-04-04T01:34:52.974Z,4.59
2017-04-04T01:35:34.332Z,4.56
2017-04-04T01:36:14.957Z,4.52
2017-04-04T01:36:55.499Z,4.58
2017-04-04T01:37:36.157Z,4.55
2017-04-04T01:38:16.749Z,4.52
2017-04-04T01:38:57.345Z,4.55
2017-04-04T01:39:37.895Z,4.53
2017-04-04T01:40:18.575Z,4.48
2017-04-04T01:40:59.153Z,4.49
2017-04-04T01:41:39.744Z,4.45
2017-04-04T01:42:20.295Z,4.49
2017-04-04T01:43:00.982Z,4.5
2017-04-04T01:43:41.552Z,4.42
2017-04-04T01:44:22.159Z,4.37
2017-04-04T01:45:02.763Z,4.37
2017-04-04T01:45:44.396Z,4.37
2017-04-04T01:46:25.036Z,4.35
2017-04-04T01:47:05.604Z,4.35
2017-04-04T01:47:46.261Z,4.34
2017-04-04T01:48:26.895Z,4.34
2017-04-04T01:49:07.467Z,4.35
2017-04-04T01:49:48.201Z,4.37
2017-04-04T01:50:28.749Z,4.34
2017-04-04T01:51:09.404Z,4.37
2017-04-04T01:51:50.049Z,4.26
2017-04-04T01:52:30.742Z,4.32
2017-04-04T01:53:11.360Z,4.35
2017-04-04T01:53:52.022Z,4.34
2017-04-04T01:54:32.670Z,4.34
2017-04-04T01:55:13.323Z,4.31
2017-04-04T01:55:53.920Z,4.32
2017-04-04T01:56:34.538Z,4.31
2017-04-04T01:57:16.206Z,4.32
2017-04-04T01:57:56.771Z,4.24
2017-04-04T01:58:37.478Z,4.3
2017-04-04T01:59:18.057Z,4.24
2017-04-04T01:59:58.638Z,4.31
2017-04-04T02:00:39.270Z,4.28
2017-04-04T02:01:19.883Z,4.3
2017-04-04T02:02:00.560Z,4.28
2017-04-04T02:02:41.154Z,4.16
2017-04-04T02:03:22.811Z,4.22
2017-04-04T02:04:04.218Z,4.16
2017-04-04T02:04:44.809Z,4.24
2017-04-04T02:05:25.391Z,4.17
2017-04-04T02:06:06.046Z,4.16
2017-04-04T02:06:46.741Z,4.14
2017-04-04T02:07:27.338Z,4.19
2017-04-04T02:08:08.012Z,4.16
2017-04-04T02:08:48.679Z,4.1
2017-04-04T02:09:29.300Z,4.16
2017-04-04T02:10:09.956Z,4.12
2017-04-04T02:10:50.617Z,4.13
2017-04-04T02:11:31.213Z,4.16
2017-04-04T02:12:11.791Z,4.12
2017-04-04T02:12:52.377Z,4.12
2017-04-04T02:13:33.022Z,4.17
2017-04-04T02:14:13.698Z,4.16
2017-04-04T02:14:54.299Z,4.2
2017-04-04T02:15:34.869Z,4.14
2017-04-04T02:16:16.555Z,4.12
2017-04-04T02:16:57.153Z,4.19
2017-04-04T02:17:37.732Z,4.13
2017-04-04T02:18:18.310Z,4.12
2017-04-04T02:18:58.969Z,4.06
2017-04-04T02:19:39.643Z,4.1
2017-04-04T02:20:20.243Z,4.12
2017-04-04T02:21:00.824Z,4.1
2017-04-04T02:21:41.460Z,4.1
2017-04-04T02:22:22.098Z,4.06
2017-04-04T02:23:02.679Z,3.96
2017-04-04T02:23:43.324Z,3.94
2017-04-04T02:24:23.955Z,3.94
2017-04-04T02:25:04.509Z,3.94
2017-04-04T02:25:45.157Z,3.98
2017-04-04T02:26:25.880Z,4.01
2017-04-04T02:27:06.465Z,4.02
2017-04-04T02:27:47.026Z,4.02
2017-04-04T02:28:27.694Z,4.01
2017-04-04T02:29:08.285Z,3.98
2017-04-04T02:29:48.869Z,3.98
2017-04-04T02:30:29.445Z,3.99
2017-04-04T02:31:11.131Z,3.99
2017-04-04T02:31:51.764Z,4.02
2017-04-04T02:32:33.347Z,3.96
2017-04-04T02:33:14.018Z,3.98
2017-04-04T02:33:54.653Z,4.02
2017-04-04T02:34:36.349Z,3.99
2017-04-04T02:35:16.972Z,3.98
2017-04-04T02:35:57.635Z,3.94
2017-04-04T02:36:38.290Z,3.96
2017-04-04T02:37:18.944Z,3.91
2017-04-04T02:37:59.594Z,3.87
2017-04-04T02:38:40.259Z,3.91
2017-04-04T02:39:20.900Z,3.95
2017-04-04T02:40:01.672Z,3.95
2017-04-04T02:40:42.312Z,3.84
2017-04-04T02:41:22.964Z,3.92
2017-04-04T02:42:04.641Z,3.84
2017-04-04T02:42:45.286Z,3.91
2017-04-04T02:43:25.933Z,3.86
2017-04-04T02:44:06.598Z,3.92
2017-04-04T02:44:47.252Z,3.88
2017-04-04T02:45:27.905Z,3.92
2017-04-04T02:46:08.542Z,3.88
2017-04-04T02:46:49.110Z,3.94
2017-04-04T02:47:29.765Z,3.84
2017-04-04T02:48:10.397Z,3.84
2017-04-04T02:48:50.967Z,3.87
2017-04-04T02:49:31.708Z,3.87
2017-04-04T02:50:12.254Z,3.81
2017-04-04T02:50:52.836Z,3.87
2017-04-04T02:51:33.475Z,3.77
2017-04-04T02:52:14.169Z,3.86
2017-04-04T02:52:54.768Z,3.87
2017-04-04T02:53:35.491Z,3.92
2017-04-04T02:54:16.076Z,3.87
2017-04-04T02:54:57.700Z,3.84
2017-04-04T02:55:38.308Z,3.87
2017-04-04T02:56:18.953Z,3.86
2017-04-04T02:57:00.632Z,3.81
2017-04-04T02:57:41.283Z,3.76
2017-04-04T02:58:21.940Z,3.83
2017-04-04T02:59:02.588Z,3.83
2017-04-04T02:59:44.163Z,3.83
2017-04-04T03:00:24.892Z,3.86
2017-04-04T03:01:05.475Z,3.86
2017-04-04T03:01:47.152Z,3.86
2017-04-04T03:02:27.799Z,3.8
2017-04-04T03:03:08.453Z,3.76
2017-04-04T03:03:49.103Z,3.81
2017-04-04T03:04:30.782Z,3.83
2017-04-04T03:05:12.456Z,3.68
2017-04-04T03:05:53.017Z,3.77
2017-04-04T03:06:33.986Z,3.73
2017-04-04T03:07:14.631Z,3.69
2017-04-04T03:07:55.283Z,3.76
2017-04-04T03:08:35.952Z,3.74
2017-04-04T03:09:16.603Z,3.69
2017-04-04T03:09:59.189Z,3.69
2017-04-04T03:10:39.858Z,3.69
2017-04-04T03:11:20.541Z,3.65
2017-04-04T03:12:01.139Z,3.62
2017-04-04T03:12:41.698Z,3.59
2017-04-04T03:13:22.373Z,3.66
2017-04-04T03:14:03.053Z,3.68
2017-04-04T03:14:43.751Z,3.6
2017-04-04T03:15:24.307Z,3.62
2017-04-04T03:16:04.958Z,3.62
2017-04-04T03:16:45.552Z,3.63
2017-04-04T03:17:26.156Z,3.58
2017-04-04T03:18:06.720Z,3.63
2017-04-04T03:18:48.410Z,3.62
2017-04-04T03:19:28.985Z,3.6
2017-04-04T03:20:09.582Z,3.63
2017-04-04T03:20:50.155Z,3.6
2017-04-04T03:21:30.806Z,3.5
2017-04-04T03:22:12.424Z,3.53
2017-04-04T03:22:53.015Z,3.56
2017-04-04T03:23:33.580Z,3.59
2017-04-04T03:24:14.245Z,3.56
2017-04-04T03:24:55.854Z,3.58
2017-04-04T03:25:36.446Z,3.58
2017-04-04T03:26:17.105Z,3.51
2017-04-04T03:26:57.753Z,3.59
2017-04-04T03:27:38.411Z,3.56
2017-04-04T03:28:19.063Z,3.47
2017-04-04T03:28:59.716Z,3.51
2017-04-04T03:29:40.373Z,3.51
2017-04-04T03:30:21.021Z,3.5
2017-04-04T03:31:01.577Z,3.55
2017-04-04T03:31:42.263Z,3.58
2017-04-04T03:32:22.832Z,3.55
2017-04-04T03:33:03.427Z,3.51
2017-04-04T03:33:43.995Z,3.53
2017-04-04T03:34:25.677Z,3.5
2017-04-04T03:35:06.261Z,3.51
2017-04-04T03:35:46.859Z,3.45
2017-04-04T03:36:27.513Z,3.56
2017-04-04T03:37:08.171Z,3.47
2017-04-04T03:37:48.816Z,3.45
2017-04-04T03:38:29.472Z,3.45
2017-04-04T03:39:10.125Z,3.47
2017-04-04T03:39:50.777Z,3.5
2017-04-04T03:40:31.429Z,3.4
2017-04-04T03:41:12.083Z,3.47
2017-04-04T03:41:52.736Z,3.4
2017-04-04T03:42:35.337Z,3.5
2017-04-04T03:43:15.988Z,3.45
2017-04-04T03:43:56.641Z,3.34
2017-04-04T03:44:37.292Z,3.37
2017-04-04T03:45:17.948Z,3.42
2017-04-04T03:45:59.624Z,3.41
2017-04-04T03:46:40.276Z,3.37
2017-04-04T03:47:20.995Z,3.44
2017-04-04T03:48:01.581Z,3.42
2017-04-04T03:48:42.233Z,3.41
2017-04-04T03:49:22.887Z,3.41
2017-04-04T03:50:03.541Z,3.42
2017-04-04T03:50:44.193Z,3.44
2017-04-04T03:51:24.771Z,3.45
2017-04-04T03:52:05.416Z,3.41
2017-04-04T03:52:47.087Z,3.42
2017-04-04T03:53:27.745Z,3.31
2017-04-04T03:54:08.395Z,3.34
2017-04-04T03:54:49.057Z,3.41
2017-04-04T03:55:29.708Z,3.4
2017-04-04T03:56:11.315Z,3.31
2017-04-04T03:56:51.915Z,3.37
2017-04-04T03:57:32.489Z,3.28
2017-04-04T03:58:13.139Z,3.4
2017-04-04T03:58:53.727Z,3.4
2017-04-04T03:59:34.317Z,3.31
2017-04-04T04:00:14.898Z,3.29
2017-04-04T04:00:55.540Z,3.36
2017-04-04T04:01:36.128Z,3.32
2017-04-04T04:02:16.725Z,3.29
2017-04-04T04:02:57.305Z,3.22
2017-04-04T04:03:37.968Z,3.25
2017-04-04T04:04:18.644Z,3.29
2017-04-04T04:05:00.265Z,3.37
2017-04-04T04:05:40.840Z,3.23
2017-04-04T04:06:21.481Z,3.26
2017-04-04T04:07:02.122Z,3.23
2017-04-04T04:07:42.686Z,3.28
2017-04-04T04:08:23.348Z,3.22
2017-04-04T04:09:03.979Z,3.26
2017-04-04T04:09:44.552Z,3.19
2017-04-04T04:10:25.197Z,3.22
2017-04-04T04:11:05.933Z,3.26
2017-04-04T04:11:46.581Z,3.26
2017-04-04T04:12:28.260Z,3.21
2017-04-04T04:13:08.917Z,3.21
2017-04-04T04:13:49.565Z,3.18
2017-04-04T04:14:31.249Z,3.21
2017-04-04T04:15:12.924Z,3.18
2017-04-04T04:15:54.600Z,3.21
2017-04-04T04:16:35.209Z,3.23
2017-04-04T04:17:15.811Z,3.1
2017-04-04T04:17:56.483Z,3.21
2017-04-04T04:18:38.160Z,3.1
2017-04-04T04:19:18.803Z,3.16
2017-04-04T04:19:59.492Z,3.14
2017-04-04T04:20:40.116Z,3.16
2017-04-04T04:21:20.761Z,3.14
2017-04-04T04:22:01.424Z,3.1
2017-04-04T04:22:43.092Z,3.04
2017-04-04T04:23:23.753Z,3
2017-04-04T04:24:04.403Z,3.01
2017-04-04T04:24:45.064Z,3.05
2017-04-04T04:25:25.720Z,3.11
2017-04-04T04:26:06.352Z,3.01
2017-04-04T04:26:46.992Z,3.07
2017-04-04T04:27:27.572Z,3.08
2017-04-04T04:28:08.244Z,3.01
2017-04-04T04:28:48.855Z,3.04
2017-04-04T04:29:29.438Z,3.04
2017-04-04T04:30:10.088Z,3
2017-04-04T04:30:50.701Z,3.08
2017-04-04T04:31:31.264Z,3.07
2017-04-04T04:32:12.847Z,3.04
2017-04-04T04:32:53.549Z,3.04
2017-04-04T04:33:34.139Z,3.03
2017-04-04T04:34:14.723Z,3.04
2017-04-04T04:34:55.365Z,3.11
2017-04-04T04:35:35.956Z,3.03
2017-04-04T04:36:16.548Z,2.98
2017-04-04T04:36:57.126Z,3.05
2017-04-04T04:37:37.774Z,3.03
2017-04-04T04:38:18.426Z,3.03
2017-04-04T04:38:59.074Z,3.05
2017-04-04T04:39:39.728Z,3.05
2017-04-04T04:40:20.385Z,2.97
2017-04-04T04:41:01.038Z,3.01
2017-04-04T04:41:41.743Z,3.13
2017-04-04T04:42:22.348Z,3.1
2017-04-04T04:43:04.013Z,3.1
2017-04-04T04:43:46.628Z,3.08
2017-04-04T04:44:27.298Z,3.1
2017-04-04T04:45:07.927Z,2.98
2017-04-04T04:45:48.573Z,3.03
2017-04-04T04:46:29.226Z,2.93
2017-04-04T04:47:09.877Z,2.97
2017-04-04T04:47:50.537Z,3.01
2017-04-04T04:48:31.200Z,3.07
2017-04-04T04:49:11.843Z,3.03
2017-04-04T04:49:54.426Z,3.01
2017-04-04T04:50:35.079Z,3
2017-04-04T04:51:16.771Z,3
2017-04-04T04:51:57.404Z,3.03
2017-04-04T04:52:38.062Z,3.01
2017-04-04T04:53:18.728Z,3.03
2017-04-04T04:53:59.368Z,3.01
2017-04-04T04:54:41.060Z,2.98
2017-04-04T04:55:21.713Z,3
2017-04-04T04:56:02.354Z,3
2017-04-04T04:56:43.000Z,3.05
2017-04-04T04:57:23.584Z,2.87
2017-04-04T04:58:04.232Z,3.07
2017-04-04T04:58:44.857Z,3.04
2017-04-04T04:59:25.432Z,3.08
2017-04-04T05:00:06.077Z,3.1
2017-04-04T05:00:46.712Z,2.98
2017-04-04T05:01:27.306Z,3.04
2017-04-04T05:02:07.943Z,3.04
2017-04-04T05:02:48.592Z,2.95
2017-04-04T05:03:29.249Z,3.03
2017-04-04T05:04:09.843Z,3.04
2017-04-04T05:04:50.531Z,3.04
2017-04-04T05:05:31.128Z,3.08
2017-04-04T05:06:11.771Z,3.05
2017-04-04T05:06:52.435Z,3.1
2017-04-04T05:07:33.037Z,3.07
2017-04-04T05:08:13.692Z,3.08
2017-04-04T05:08:54.371Z,3.05
2017-04-04T05:09:35.051Z,3.07
2017-04-04T05:10:15.653Z,2.98
2017-04-04T05:10:56.225Z,3.05
2017-04-04T05:11:36.893Z,3.13
2017-04-04T05:12:17.527Z,3.13
2017-04-04T05:12:58.221Z,3.08
2017-04-04T05:13:38.870Z,3.11
2017-04-04T05:14:19.514Z,3.13
2017-04-04T05:15:00.173Z,3.1
2017-04-04T05:15:40.842Z,3.1
2017-04-04T05:16:21.475Z,3.08
2017-04-04T05:17:02.138Z,3.1
2017-04-04T05:17:42.791Z,3.18
2017-04-04T05:18:23.449Z,3.18
2017-04-04T05:19:04.088Z,3.13
2017-04-04T05:19:44.743Z,3.16
2017-04-04T05:20:25.393Z,3.25
2017-04-04T05:21:06.063Z,3.22
2017-04-04T05:21:46.707Z,3.22
2017-04-04T05:22:27.365Z,3.28
2017-04-04T05:23:08.016Z,3.21
2017-04-04T05:23:48.677Z,3.28
2017-04-04T05:24:29.324Z,3.22
2017-04-04T05:25:09.977Z,3.26
2017-04-04T05:25:50.621Z,3.22
2017-04-04T05:26:32.243Z,3.22
2017-04-04T05:27:12.823Z,3.19
2017-04-04T05:27:53.471Z,3.23
2017-04-04T05:28:34.052Z,3.25
2017-04-04T05:29:14.654Z,3.26
2017-04-04T05:29:55.225Z,3.25
2017-04-04T05:30:35.867Z,3.22
2017-04-04T05:31:16.457Z,3.26
2017-04-04T05:31:57.057Z,3.21
2017-04-04T05:32:37.645Z,3.28
2017-04-04T05:33:19.317Z,3.28
2017-04-04T05:33:59.993Z,3.31
2017-04-04T05:34:40.592Z,3.29
2017-04-04T05:35:21.174Z,3.36
2017-04-04T05:36:02.847Z,3.36
2017-04-04T05:36:43.528Z,3.4
2017-04-04T05:37:24.185Z,3.4
2017-04-04T05:38:04.756Z,3.41
2017-04-04T05:38:45.342Z,3.36
2017-04-04T05:39:27.029Z,3.4
2017-04-04T05:40:08.715Z,3.44
2017-04-04T05:40:49.358Z,3.55
2017-04-04T05:41:30.052Z,3.42
2017-04-04T05:42:10.639Z,3.47
2017-04-04T05:42:51.214Z,3.45
2017-04-04T05:43:31.873Z,3.42
2017-04-04T05:44:12.459Z,3.56
2017-04-04T05:44:53.148Z,3.55
2017-04-04T05:45:33.726Z,3.55
2017-04-04T05:46:14.383Z,3.55
2017-04-04T05:46:55.061Z,3.47
2017-04-04T05:47:35.660Z,3.55
2017-04-04T05:48:16.240Z,3.66
2017-04-04T05:48:56.864Z,3.63
2017-04-04T05:49:37.427Z,3.65
2017-04-04T05:50:18.023Z,3.6
2017-04-04T05:50:58.615Z,3.68
2017-04-04T05:51:39.193Z,3.69
2017-04-04T05:52:19.841Z,3.59
2017-04-04T05:53:00.434Z,3.65
2017-04-04T05:53:41.031Z,3.73
2017-04-04T05:54:21.602Z,3.74
2017-04-04T05:55:02.296Z,3.69
2017-04-04T05:55:42.960Z,3.68
2017-04-04T05:56:23.563Z,3.81
2017-04-04T05:57:04.203Z,3.76
2017-04-04T05:57:44.855Z,3.87
2017-04-04T05:58:25.509Z,3.83
2017-04-04T05:59:06.160Z,3.81
2017-04-04T05:59:46.824Z,3.86
2017-04-04T06:00:27.464Z,3.81
2017-04-04T06:01:08.122Z,3.81
2017-04-04T06:01:48.775Z,3.88
2017-04-04T06:02:29.429Z,3.86
2017-04-04T06:03:11.114Z,3.87
2017-04-04T06:03:52.801Z,3.87
2017-04-04T06:04:33.477Z,3.92
2017-04-04T06:05:14.121Z,3.92
2017-04-04T06:05:54.779Z,3.92
2017-04-04T06:06:35.436Z,4.01
2017-04-04T06:07:16.042Z,4.01
2017-04-04T06:07:56.695Z,3.94
2017-04-04T06:08:42.878Z,3.91
2017-04-04T06:09:23.529Z,3.99
2017-04-04T06:10:04.200Z,3.98
2017-04-04T06:10:45.874Z,3.98
2017-04-04T06:11:26.528Z,4.16
2017-04-04T06:12:08.218Z,4.1
2017-04-04T06:12:48.843Z,4.12
2017-04-04T06:13:30.550Z,4.1
2017-04-04T06:14:11.259Z,4.13
2017-04-04T06:14:51.932Z,4.17
2017-04-04T06:15:32.588Z,4.19
2017-04-04T06:16:13.190Z,4.2
2017-04-04T06:16:53.814Z,4.28
2017-04-04T06:17:34.504Z,4.2
2017-04-04T06:18:15.188Z,4.35
2017-04-04T06:18:55.742Z,4.37
2017-04-04T06:19:36.407Z,4.26
2017-04-04T06:20:16.993Z,4.38
2017-04-04T06:20:57.586Z,4.34
2017-04-04T06:21:38.176Z,4.34
2017-04-04T06:22:18.818Z,4.4
2017-04-04T06:22:59.426Z,4.37
2017-04-04T06:23:40.101Z,4.44
2017-04-04T06:24:20.695Z,4.41
2017-04-04T06:25:01.325Z,4.44
2017-04-04T06:25:41.909Z,4.52
2017-04-04T06:26:22.513Z,4.52
2017-04-04T06:27:03.084Z,4.53
2017-04-04T06:27:43.732Z,4.58
2017-04-04T06:28:24.412Z,4.58
2017-04-04T06:29:05.126Z,4.59
2017-04-04T06:29:45.666Z,4.6
2017-04-04T06:30:26.334Z,4.67
2017-04-04T06:31:06.937Z,4.58
2017-04-04T06:31:47.600Z,4.7
2017-04-04T06:32:29.265Z,4.63
2017-04-04T06:33:09.903Z,4.66
2017-04-04T06:33:50.615Z,4.66
2017-04-04T06:34:31.211Z,4.75
2017-04-04T06:35:11.866Z,4.7
2017-04-04T06:35:52.425Z,4.77
2017-04-04T06:36:33.024Z,4.77
2017-04-04T06:37:13.573Z,4.86
2017-04-04T06:37:54.217Z,4.86
2017-04-04T06:38:34.785Z,4.8
2017-04-04T06:39:15.450Z,4.89
2017-04-04T06:39:56.001Z,4.87
2017-04-04T06:40:36.651Z,4.89
2017-04-04T06:41:17.286Z,4.92
2017-04-04T06:41:58.649Z,4.97
2017-04-04T06:42:39.337Z,4.9
2017-04-04T06:43:20.018Z,4.93
2017-04-04T06:44:00.609Z,4.93
2017-04-04T06:44:41.184Z,5.07
2017-04-04T06:45:21.840Z,4.99
2017-04-04T06:46:02.541Z,5.1
2017-04-04T06:46:43.103Z,5
2017-04-04T06:47:23.781Z,5.02
2017-04-04T06:48:04.435Z,5.07
2017-04-04T06:48:44.983Z,5.1
2017-04-04T06:49:25.653Z,5.15
2017-04-04T06:50:06.393Z,5.11
2017-04-04T06:50:47.529Z,5.17
2017-04-04T06:51:28.227Z,5.18
2017-04-04T06:52:08.869Z,5.14
2017-04-04T06:52:49.462Z,5.21
2017-04-04T06:53:31.103Z,5.23
2017-04-04T06:54:11.696Z,5.2
2017-04-04T06:54:52.313Z,5.25
2017-04-04T06:55:32.944Z,5.29
2017-04-04T06:56:13.509Z,5.35
2017-04-04T06:56:54.171Z,5.41
2017-04-04T06:57:34.954Z,5.38
2017-04-04T06:58:16.781Z,5.36
2017-04-04T06:58:57.352Z,5.38
2017-04-04T06:59:38.005Z,5.43
2017-04-04T07:00:18.688Z,5.46
2017-04-04T07:01:00.309Z,5.51
2017-04-04T07:01:40.968Z,5.57
2017-04-04T07:02:21.615Z,5.54
2017-04-04T07:03:02.279Z,5.65
2017-04-04T07:03:42.852Z,5.62
2017-04-04T07:04:23.477Z,5.73
2017-04-04T07:05:04.133Z,5.79
2017-04-04T07:05:44.786Z,5.66
2017-04-04T07:06:25.436Z,5.72
2017-04-04T07:07:06.089Z,5.69
2017-04-04T07:07:46.804Z,5.73
2017-04-04T07:08:27.495Z,5.84
2017-04-04T07:09:08.150Z,5.8
2017-04-04T07:09:48.799Z,5.94
2017-04-04T07:10:29.450Z,5.9
2017-04-04T07:11:10.185Z,5.94
2017-04-04T07:11:50.797Z,5.97
2017-04-04T07:12:31.431Z,5.98
2017-04-04T07:13:12.127Z,5.99
2017-04-04T07:13:52.714Z,6.05
2017-04-04T07:14:33.524Z,6.08
2017-04-04T07:15:14.155Z,6.07
2017-04-04T07:15:54.739Z,6.12
2017-04-04T07:16:35.353Z,6.11
2017-04-04T07:17:15.913Z,6.16
2017-04-04T07:17:56.551Z,6.22
2017-04-04T07:18:37.147Z,6.19
2017-04-04T07:19:17.739Z,6.33
2017-04-04T07:19:58.317Z,6.24
2017-04-04T07:20:38.969Z,6.41
2017-04-04T07:21:19.658Z,6.38
2017-04-04T07:22:00.263Z,6.46
2017-04-04T07:22:40.906Z,6.49
2017-04-04T07:23:21.484Z,6.49
2017-04-04T07:24:02.067Z,6.54
2017-04-04T07:24:42.646Z,6.6
2017-04-04T07:25:23.201Z,6.62
2017-04-04T07:26:03.772Z,6.66
2017-04-04T07:26:44.353Z,6.62
2017-04-04T07:27:25.975Z,6.63
2017-04-04T07:28:06.552Z,6.64
2017-04-04T07:28:53.130Z,6.64
2017-04-04T07:29:33.734Z,6.69
2017-04-04T07:30:14.371Z,6.64
2017-04-04T07:30:55.052Z,6.74
2017-04-04T07:31:35.646Z,6.72
2017-04-04T07:32:16.315Z,6.74
2017-04-04T07:32:57.985Z,6.77
2017-04-04T07:33:38.594Z,6.82
2017-04-04T07:34:19.288Z,6.74
2017-04-04T07:35:01.020Z,6.79
2017-04-04T07:35:41.579Z,6.84
2017-04-04T07:36:24.192Z,6.87
2017-04-04T07:37:04.937Z,6.93
2017-04-04T07:37:45.554Z,6.99
2017-04-04T07:38:26.154Z,6.89
2017-04-04T07:39:06.892Z,7
2017-04-04T07:39:47.707Z,7
2017-04-04T07:40:28.423Z,7.02
2017-04-04T07:41:10.063Z,7.03
2017-04-04T07:41:50.750Z,6.99
2017-04-04T07:42:31.346Z,7
2017-04-04T07:43:11.982Z,7.02
2017-04-04T07:43:52.531Z,6.99
2017-04-04T07:44:33.162Z,7.03
2017-04-04T07:45:13.771Z,7.13
2017-04-04T07:45:54.393Z,7.05
2017-04-04T07:46:35.078Z,7.13
2017-04-04T07:47:15.671Z,7.11
2017-04-04T07:47:56.231Z,7.2
2017-04-04T07:48:36.899Z,7.2
2017-04-04T07:49:17.479Z,7.17
2017-04-04T07:49:58.082Z,7.15
2017-04-04T07:50:38.637Z,7.2
2017-04-04T07:51:19.291Z,7.25
2017-04-04T07:51:59.891Z,7.28
2017-04-04T07:52:41.514Z,7.33
2017-04-04T07:53:22.093Z,7.31
2017-04-04T07:54:02.751Z,7.4
2017-04-04T07:54:43.388Z,7.4
2017-04-04T07:55:24.027Z,7.38
2017-04-04T07:56:05.705Z,7.4
2017-04-04T07:56:46.264Z,7.43
2017-04-04T07:57:26.849Z,7.5
2017-04-04T07:58:07.561Z,7.47
2017-04-04T07:58:48.241Z,7.56
2017-04-04T07:59:28.995Z,7.53
2017-04-04T08:00:09.626Z,7.51
2017-04-04T08:00:50.268Z,7.57
2017-04-04T08:01:30.849Z,7.6
2017-04-04T08:02:11.519Z,7.6
2017-04-04T08:02:52.185Z,7.7
2017-04-04T08:03:32.880Z,7.73
2017-04-04T08:04:13.467Z,7.75
2017-04-04T08:04:54.090Z,7.8
2017-04-04T08:05:34.790Z,7.76
2017-04-04T08:06:15.437Z,7.88
2017-04-04T08:06:55.988Z,7.95
2017-04-04T08:07:36.621Z,7.91
2017-04-04T08:08:17.248Z,7.88
2017-04-04T08:08:57.815Z,7.91
2017-04-04T08:09:38.478Z,7.97
2017-04-04T08:10:19.206Z,7.98
2017-04-04T08:10:59.759Z,7.97
2017-04-04T08:11:40.445Z,8
2017-04-04T08:12:21.112Z,8.05
2017-04-04T08:13:01.712Z,8.08
2017-04-04T08:13:42.266Z,8.05
2017-04-04T08:14:22.821Z,8.1
2017-04-04T08:15:03.475Z,8.06
2017-04-04T08:15:44.072Z,8.16
2017-04-04T08:16:24.672Z,8.16
2017-04-04T08:17:05.325Z,8.18
2017-04-04T08:17:45.982Z,8.23
2017-04-04T08:18:26.645Z,8.28
2017-04-04T08:19:07.301Z,8.24
2017-04-04T08:19:47.932Z,8.28
2017-04-04T08:20:29.511Z,8.33
2017-04-04T08:21:16.131Z,8.37
2017-04-04T08:21:56.737Z,8.34
2017-04-04T08:22:38.378Z,8.41
2017-04-04T08:23:19.085Z,8.42
2017-04-04T08:23:59.651Z,8.42
2017-04-04T08:24:40.357Z,8.44
2017-04-04T08:25:20.973Z,8.46
2017-04-04T08:26:01.507Z,8.53
2017-04-04T08:26:42.211Z,8.46
2017-04-04T08:27:22.810Z,8.55
2017-04-04T08:28:03.494Z,8.56
2017-04-04T08:28:44.222Z,8.53
2017-04-04T08:29:24.910Z,8.6
2017-04-04T08:30:05.609Z,8.63
2017-04-04T08:30:46.383Z,8.64
2017-04-04T08:31:27.127Z,8.63
2017-04-04T08:32:07.838Z,8.67
2017-04-04T08:32:48.534Z,8.7
2017-04-04T08:33:29.305Z,8.7
2017-04-04T08:34:10.007Z,8.66
2017-04-04T08:34:50.620Z,8.79
2017-04-04T08:35:31.257Z,8.79
2017-04-04T08:36:11.928Z,8.82
2017-04-04T08:36:52.552Z,8.89
2017-04-04T08:37:33.308Z,8.88
2017-04-04T08:38:13.959Z,8.89
2017-04-04T08:38:54.616Z,9
2017-04-04T08:39:35.268Z,8.99
2017-04-04T08:40:15.918Z,9
2017-04-04T08:40:56.571Z,9.1
2017-04-04T08:41:37.134Z,9.1
2017-04-04T08:42:17.810Z,9.08
2017-04-04T08:42:58.396Z,9.08
2017-04-04T08:43:39.085Z,9.08
2017-04-04T08:44:19.819Z,9.11
2017-04-04T08:45:00.596Z,9.16
2017-04-04T08:45:42.231Z,9.19
2017-04-04T08:46:22.922Z,9.18
2017-04-04T08:47:03.538Z,9.22
2017-04-04T08:47:44.164Z,9.21
2017-04-04T08:48:24.893Z,9.26
2017-04-04T08:49:05.504Z,9.32
2017-04-04T08:49:48.193Z,9.37
2017-04-04T08:50:29.915Z,9.29
2017-04-04T08:51:10.516Z,9.36
2017-04-04T08:51:51.209Z,9.37
2017-04-04T08:52:34.917Z,9.39
2017-04-04T08:53:16.678Z,9.39
2017-04-04T08:53:57.443Z,9.39
2017-04-04T08:54:38.085Z,9.41
2017-04-04T08:55:18.778Z,9.43
2017-04-04T08:55:59.413Z,9.5
2017-04-04T08:56:40.056Z,9.58
2017-04-04T08:57:20.725Z,9.44
2017-04-04T08:58:01.354Z,9.56
2017-04-04T08:58:42.041Z,9.55
2017-04-04T08:59:22.656Z,9.73
2017-04-04T09:00:03.306Z,9.66
2017-04-04T09:00:43.958Z,9.73
2017-04-04T09:01:25.523Z,9.77
2017-04-04T09:02:06.201Z,9.82
2017-04-04T09:02:46.781Z,9.8
2017-04-04T09:03:27.363Z,9.84
2017-04-04T09:04:08.021Z,9.83
2017-04-04T09:04:48.696Z,9.83
2017-04-04T09:05:29.338Z,9.84
2017-04-04T09:06:09.871Z,9.87